SAS984 LSZH-EDDH
Flight info
| Callsign | SAS984 |
|---|---|
| Flight time | N/A |
| Altitude | 38000 |
| Route | DEGES Z1 ETAGO DCT HAREM/N0455F390 DCT LOHRE DCT MASEK DCT ELNAT/N0454F380 P605 NOLGO NOLGO6A |
| Aircraft | A20N/M-SDE2E3FGHIRWXY/LB1 |
Departure
| Time | N/A |
|---|---|
| Airport | Zürich Airport (LSZH) |
Arrival
| Time | 2026-04-21 20:47 |
|---|---|
| Airport | Hamburg Helmut Schmidt Airport (EDDH) |
| Time | Latitude | Longitude | Altitude | Speed | Heading |
|---|---|---|---|---|---|
| 2026-04-21 20:40 | 53.47487 | 9.91349 | 35357 ft | 346 kts | 2° |
| 2026-04-21 20:40 | 53.49924 | 9.91234 | 34050 ft | 358 kts | 3° |
| 2026-04-21 20:40 | 53.52466 | 9.91097 | 32492 ft | 373 kts | 4° |
| 2026-04-21 20:40 | 53.55057 | 9.90968 | 30972 ft | 381 kts | 7° |
| 2026-04-21 20:41 | 53.57710 | 9.91642 | 29042 ft | 383 kts | 22° |
| 2026-04-21 20:41 | 53.60136 | 9.93368 | 27139 ft | 384 kts | 34° |
| 2026-04-21 20:41 | 53.61610 | 9.95026 | 25945 ft | 384 kts | 41° |
| 2026-04-21 20:41 | 53.63745 | 9.99463 | 23605 ft | 350 kts | 77° |
| 2026-04-21 20:42 | 53.62555 | 10.02432 | 21648 ft | 369 kts | 177° |
| 2026-04-21 20:42 | 53.61025 | 9.99520 | 20175 ft | 363 kts | 286° |
| 2026-04-21 20:42 | 53.62587 | 9.97163 | 18791 ft | 294 kts | 347° |
| 2026-04-21 20:42 | 53.64560 | 9.96242 | 16799 ft | 287 kts | 359° |
| 2026-04-21 20:43 | 53.65907 | 9.97901 | 14992 ft | 259 kts | 97° |
| 2026-04-21 20:43 | 53.64995 | 10.00175 | 13718 ft | 257 kts | 171° |
| 2026-04-21 20:43 | 53.63441 | 9.99050 | 12395 ft | 261 kts | 252° |
| 2026-04-21 20:43 | 53.64101 | 9.96955 | 11493 ft | 230 kts | 351° |
| 2026-04-21 20:44 | 53.65615 | 9.98010 | 10388 ft | 263 kts | 57° |
| 2026-04-21 20:44 | 53.65666 | 10.00724 | 9859 ft | 229 kts | 116° |
| 2026-04-21 20:44 | 53.64335 | 10.01368 | 8240 ft | 253 kts | 225° |
| 2026-04-21 20:44 | 53.64280 | 9.99573 | 6940 ft | 250 kts | 315° |
| 2026-04-21 20:45 | 53.65348 | 10.01022 | 4278 ft | 236 kts | 131° |
| 2026-04-21 20:45 | 53.63999 | 10.00500 | 3092 ft | 225 kts | 209° |
| 2026-04-21 20:45 | 53.62913 | 9.98699 | 1792 ft | 221 kts | 201° |
| 2026-04-21 20:45 | 53.61599 | 9.99142 | 1256 ft | 177 kts | 123° |
| 2026-04-21 20:46 | 53.61674 | 10.00918 | 975 ft | 188 kts | 41° |
| 2026-04-21 20:46 | 53.62900 | 10.00936 | 672 ft | 184 kts | 320° |
| 2026-04-21 20:46 | 53.63060 | 9.98992 | 293 ft | 169 kts | 231° |
| 2026-04-21 20:46 | 53.62449 | 9.97700 | 47 ft | 109 kts | 240° |
| 2026-04-21 20:47 | 53.62231 | 9.97329 | 47 ft | 21 kts | 174° |